Time;durP1;ratioP1;P1;durP2;ratioP2;P2;SDS_P1;SDS_P2;PMS_P1;PMS_P2;Temp;Humidity;BMP_temperature;BMP_pressure;BME280_temperature;BME280_humidity;BME280_pressure;Samples;Min_cycle;Max_cycle;Signal;HPM_P1;HPM_P2
2021/07/27 00:01:07;;;;;;;13.53;12.23;;;;;;;27.80;57.72;98401.83;1645123;86;21055;-60
2021/07/27 00:03:33;;;;;;;13.68;12.25;;;;;;;27.80;57.74;98400.44;1678816;85;21044;-61
2021/07/27 00:05:59;;;;;;;14.45;13.08;;;;;;;27.80;57.79;98400.44;1684710;85;21038;-59
2021/07/27 00:08:24;;;;;;;13.30;12.10;;;;;;;27.80;57.80;98393.47;1677223;85;21078;-59
2021/07/27 00:10:54;;;;;;;13.53;12.17;;;;;;;27.80;57.79;98388.50;1655919;86;21082;-61
2021/07/27 00:13:18;;;;;;;13.43;12.05;;;;;;;27.81;57.80;98391.42;1692205;84;21076;-61
2021/07/27 00:15:44;;;;;;;13.30;12.10;;;;;;;27.81;57.77;98395.61;1686263;84;21474;-60
2021/07/27 00:18:10;;;;;;;13.00;11.70;;;;;;;27.80;57.70;98392.07;1682047;84;21102;-59
2021/07/27 00:20:35;;;;;;;13.10;11.90;;;;;;;27.81;57.64;98391.42;1684863;84;21087;-60
2021/07/27 00:23:01;;;;;;;14.07;12.77;;;;;;;27.81;57.67;98385.84;1693497;84;21602;-60
2021/07/27 00:25:27;;;;;;;12.67;11.57;;;;;;;27.81;57.64;98381.66;1689348;84;21092;-60
2021/07/27 00:27:53;;;;;;;13.25;11.97;;;;;;;27.80;57.61;98371.14;1697474;84;21573;-58
2021/07/27 00:30:19;;;;;;;13.03;11.83;;;;;;;27.81;57.59;98371.89;1695864;84;21379;-60
2021/07/27 00:32:48;;;;;;;13.57;12.23;;;;;;;27.81;57.54;98363.52;1697200;84;21104;-60
2021/07/27 00:35:16;;;;;;;13.35;12.13;;;;;;;27.81;57.53;98360.73;1697670;84;21069;-60
2021/07/27 00:37:47;;;;;;;13.03;11.88;;;;;;;27.79;57.53;98366.80;1683067;84;21092;-60
2021/07/27 00:40:15;;;;;;;12.82;11.57;;;;;;;27.80;57.47;98354.41;1669734;85;21073;-59
2021/07/27 00:42:42;;;;;;;13.15;11.95;;;;;;;27.80;57.44;98358.59;1674421;84;21569;-60
2021/07/27 00:45:09;;;;;;;12.93;11.83;;;;;;;27.80;57.43;98359.98;1691156;84;21033;-59
2021/07/27 00:47:36;;;;;;;12.93;11.73;;;;;;;27.80;57.40;98346.03;1685378;84;21660;-58
2021/07/27 00:50:02;;;;;;;12.53;11.33;;;;;;;27.80;57.36;98354.41;1693759;84;21033;-58
2021/07/27 00:52:28;;;;;;;12.40;11.30;;;;;;;27.80;57.32;98353.63;1670228;86;21109;-60
2021/07/27 00:54:54;;;;;;;12.70;11.50;;;;;;;27.80;57.30;98355.02;1670865;84;21613;-59
2021/07/27 00:57:24;;;;;;;12.40;11.30;;;;;;;27.80;57.26;98358.59;1658926;86;20999;-59
2021/07/27 00:59:48;;;;;;;12.63;11.53;;;;;;;27.80;57.23;98355.02;1631037;87;21053;-60
2021/07/27 01:02:14;;;;;;;12.15;11.05;;;;;;;27.80;57.17;98348.82;1641272;87;21015;-59
2021/07/27 01:04:40;;;;;;;12.33;11.30;;;;;;;27.79;57.17;98350.70;1655975;85;21130;-59
2021/07/27 01:07:05;;;;;;;13.63;12.23;;;;;;;27.79;57.13;98358.42;1707779;84;21063;-59
2021/07/27 01:09:31;;;;;;;12.17;11.07;;;;;;;27.81;57.10;98362.13;1708858;84;21592;-60
2021/07/27 01:12:03;;;;;;;11.93;10.93;;;;;;;27.81;57.05;98360.73;1663546;85;21118;-59
2021/07/27 01:14:29;;;;;;;12.40;11.20;;;;;;;27.80;57.04;98358.59;1679044;84;21612;-60
2021/07/27 01:16:55;;;;;;;12.70;11.53;;;;;;;27.79;57.00;98362.61;1669671;85;21093;-60
2021/07/27 01:19:46;;;;;;;12.37;11.18;;;;;;;27.80;56.98;98367.58;1655649;86;21050;-59
2021/07/27 01:38:56;;;;;;;12.30;11.20;;;;;;;27.74;56.97;98372.44;1677050;85;21101;-60
2021/07/27 01:42:04;;;;;;;11.30;10.30;;;;;;;27.72;56.97;98370.19;1670491;85;21330;-59
2021/07/27 01:43:35;;;;;;;11.88;10.70;;;;;;;27.72;56.96;98371.58;1670590;85;21027;-59
2021/07/27 01:46:01;;;;;;;11.83;10.70;;;;;;;27.74;56.90;98372.44;1681667;85;21108;-59
2021/07/27 01:48:31;;;;;;;11.47;10.37;;;;;;;27.73;56.88;98366.11;1664471;85;21022;-58
2021/07/27 01:51:03;;;;;;;11.33;10.28;;;;;;;27.73;56.84;98364.71;1666239;85;21622;-60
2021/07/27 01:53:36;;;;;;;11.65;10.55;;;;;;;27.75;56.82;98378.15;1679415;85;21051;-60
2021/07/27 01:56:01;;;;;;;11.63;10.53;;;;;;;27.75;56.80;98380.94;1680138;85;21686;-59
2021/07/27 01:58:27;;;;;;;11.30;10.30;;;;;;;27.75;56.80;98386.52;1682985;85;21058;-58
2021/07/27 02:00:53;;;;;;;11.50;10.50;;;;;;;27.75;56.81;98400.47;1680036;85;21114;-59
2021/07/27 02:03:21;;;;;;;11.80;10.60;;;;;;;27.76;56.76;98408.95;1676591;84;21034;-59
2021/07/27 02:05:47;;;;;;;11.35;10.25;;;;;;;27.77;56.75;98410.45;1681972;84;21077;-60
2021/07/27 02:08:13;;;;;;;11.53;10.43;;;;;;;27.77;56.72;98409.80;1669532;84;21066;-60
2021/07/27 02:10:41;;;;;;;10.78;9.78;;;;;;;27.78;56.70;98422.49;1687654;85;21101;-59
2021/07/27 02:13:14;;;;;;;11.65;10.50;;;;;;;27.77;56.66;98424.39;1692339;84;21057;-60
2021/07/27 02:15:41;;;;;;;11.08;9.98;;;;;;;27.78;56.64;98424.53;1692401;84;21082;-57
2021/07/27 02:18:07;;;;;;;11.10;10.03;;;;;;;27.77;56.60;98414.63;1692455;84;21396;-59
2021/07/27 02:20:33;;;;;;;11.10;10.13;;;;;;;27.76;56.58;98410.34;1683668;84;21062;-59
2021/07/27 02:22:59;;;;;;;10.38;9.38;;;;;;;27.77;56.56;98414.63;1671226;84;21058;-61
2021/07/27 02:25:25;;;;;;;11.93;10.73;;;;;;;27.77;56.53;98418.17;1689185;84;21092;-60
2021/07/27 02:27:51;;;;;;;11.20;10.10;;;;;;;27.77;56.51;98423.75;1667303;86;21527;-59
2021/07/27 02:30:17;;;;;;;11.70;10.60;;;;;;;27.77;56.50;98426.55;1674484;83;21003;-61
2021/07/27 02:32:45;;;;;;;11.73;10.63;;;;;;;27.77;56.46;98422.36;1682644;84;21034;-58
2021/07/27 02:35:11;;;;;;;10.32;9.43;;;;;;;27.76;56.45;98420.86;1674907;85;21145;-60
2021/07/27 02:37:39;;;;;;;11.73;10.73;;;;;;;27.77;56.45;98423.75;1666177;85;21046;-61
2021/07/27 02:40:05;;;;;;;10.90;9.90;;;;;;;27.77;56.45;98434.91;1656476;85;21159;-59
2021/07/27 02:42:31;;;;;;;;;;;;;;;27.77;56.42;98426.55;1676126;84;21534;-59
2021/07/27 02:44:57;;;;;;;11.03;10.03;;;;;;;27.74;56.45;98424.80;1680847;85;20282;-61
2021/07/27 02:47:24;;;;;;;11.53;10.47;;;;;;;27.77;56.42;98425.79;1689447;85;21006;-59
2021/07/27 02:49:51;;;;;;;11.38;10.30;;;;;;;27.77;56.42;98434.16;1683318;84;21491;-59
2021/07/27 02:52:18;;;;;;;11.55;10.45;;;;;;;27.77;56.40;98434.16;1691086;85;21523;-58
2021/07/27 02:54:43;;;;;;;10.88;9.88;;;;;;;27.77;56.40;98436.95;1692302;85;21096;-60
2021/07/27 02:57:09;;;;;;;11.70;10.60;;;;;;;27.75;56.39;98426.97;1676578;84;21090;-59
2021/07/27 02:59:35;;;;;;;11.60;10.60;;;;;;;27.76;56.41;98422.89;1665263;85;21038;-59
2021/07/27 03:02:04;;;;;;;10.57;9.63;;;;;;;27.75;56.41;98436.73;1686017;85;21064;-60
2021/07/27 03:04:31;;;;;;;11.88;10.78;;;;;;;27.75;56.40;98427.72;1680138;85;21689;-60
2021/07/27 03:06:56;;;;;;;11.77;10.77;;;;;;;27.75;56.39;98425.58;1682174;84;21315;-59
2021/07/27 03:09:30;;;;;;;11.53;10.43;;;;;;;27.75;56.38;98440.92;1688284;85;21149;-59
2021/07/27 03:11:56;;;;;;;11.28;10.25;;;;;;;27.75;56.39;98450.69;1691888;84;21563;-59
2021/07/27 03:14:24;;;;;;;11.50;10.50;;;;;;;27.74;56.34;98456.88;1689743;85;21146;-59
2021/07/27 03:16:50;;;;;;;11.15;10.15;;;;;;;27.75;56.34;98454.88;1666693;85;21069;-60
2021/07/27 03:19:17;;;;;;;10.97;9.97;;;;;;;27.74;56.32;98445.72;1680431;85;21546;-59
2021/07/27 03:21:43;;;;;;;11.48;10.48;;;;;;;27.75;56.31;98465.39;1678419;85;21327;-60
2021/07/27 03:24:09;;;;;;;11.33;10.33;;;;;;;27.75;56.31;98491.14;1670947;85;21078;-60
2021/07/27 03:26:35;;;;;;;11.87;10.80;;;;;;;27.75;56.31;98492.53;1679656;85;21022;-60
2021/07/27 03:29:01;;;;;;;11.35;10.38;;;;;;;27.76;56.31;98485.67;1677229;85;21087;-59
2021/07/27 03:31:29;;;;;;;12.00;10.90;;;;;;;27.75;56.31;98486.95;1649494;85;21097;-59
2021/07/27 03:33:55;;;;;;;11.53;10.48;;;;;;;27.75;56.33;98482.77;1678702;84;21543;-59
2021/07/27 03:36:21;;;;;;;11.40;10.40;;;;;;;27.76;56.34;98490.61;1679248;84;21073;-60
2021/07/27 03:38:49;;;;;;;11.20;10.20;;;;;;;27.75;56.33;98492.53;1680239;84;20954;-60
2021/07/27 03:41:15;;;;;;;12.00;10.80;;;;;;;27.74;56.34;98481.23;1676295;84;21070;-59
2021/07/27 03:43:41;;;;;;;12.07;10.87;;;;;;;27.74;56.35;98483.39;1680554;84;21061;-59
2021/07/27 03:46:08;;;;;;;11.57;10.48;;;;;;;27.74;56.34;98479.20;1679973;84;21082;-58
2021/07/27 03:48:34;;;;;;;11.87;10.70;;;;;;;27.75;56.34;98482.77;1679303;84;21068;-60
2021/07/27 03:51:01;;;;;;;11.35;10.35;;;;;;;27.74;56.34;98479.84;1678636;85;21448;-58
2021/07/27 03:53:27;;;;;;;11.13;10.03;;;;;;;27.74;56.33;98478.45;1683420;84;21081;-61
2021/07/27 03:55:53;;;;;;;11.73;10.48;;;;;;;27.74;56.31;98481.23;1678530;84;21102;-59
2021/07/27 03:58:19;;;;;;;11.03;10.03;;;;;;;27.75;56.32;98482.77;1684054;84;20975;-58
2021/07/27 04:00:45;;;;;;;;;;;;;;;27.74;56.35;98481.99;1680368;84;21105;-59
2021/07/27 04:03:14;;;;;;;11.50;10.43;;;;;;;27.72;56.35;98469.22;1679898;83;20190;-60
2021/07/27 04:05:46;;;;;;;11.80;10.30;;;;;;;27.74;56.32;98481.23;1679688;84;21101;-60
2021/07/27 04:08:13;;;;;;;12.18;11.08;;;;;;;27.74;56.39;98479.84;1680907;84;21070;-60
2021/07/27 04:10:39;;;;;;;12.18;11.08;;;;;;;27.73;56.42;98473.52;1681488;84;21085;-59
2021/07/27 04:13:05;;;;;;;12.40;11.30;;;;;;;27.74;56.48;98475.02;1677515;84;21054;-61
2021/07/27 04:15:35;;;;;;;12.03;10.83;;;;;;;27.74;56.48;98477.05;1677853;84;21070;-58
2021/07/27 04:18:01;;;;;;;10.55;9.63;;;;;;;27.73;56.50;98476.30;1680132;85;21875;-58
2021/07/27 04:20:27;;;;;;;11.03;10.13;;;;;;;27.73;56.50;98476.30;1680480;83;21117;-59
2021/07/27 04:22:53;;;;;;;10.85;9.85;;;;;;;27.74;56.46;98479.84;1687450;84;21013;-61
2021/07/27 04:25:18;;;;;;;11.40;10.32;;;;;;;27.74;56.45;98482.63;1681425;84;21033;-59
2021/07/27 04:27:44;;;;;;;12.10;10.93;;;;;;;27.74;56.39;98484.78;1678910;84;21541;-59
2021/07/27 04:30:10;;;;;;;11.13;10.17;;;;;;;27.76;56.37;98491.25;1676068;84;21123;-59
2021/07/27 04:32:37;;;;;;;11.05;10.13;;;;;;;27.74;56.36;98492.40;1681108;84;21182;-59
2021/07/27 04:35:05;;;;;;;11.45;10.38;;;;;;;27.76;56.38;98494.04;1680134;83;21018;-60
2021/07/27 04:37:32;;;;;;;11.65;10.25;;;;;;;27.76;56.37;98488.46;1674087;84;21742;-59
2021/07/27 04:39:58;;;;;;;11.10;10.10;;;;;;;27.75;56.31;98475.80;1676526;84;21063;-60
2021/07/27 04:42:24;;;;;;;11.83;10.70;;;;;;;27.75;56.40;98477.94;1677878;84;21193;-60
2021/07/27 04:44:50;;;;;;;11.20;10.27;;;;;;;27.76;56.41;98477.30;1678809;84;21232;-60
2021/07/27 04:47:15;;;;;;;11.40;10.40;;;;;;;27.75;56.41;98479.34;1680113;83;21088;-61
2021/07/27 04:49:45;;;;;;;11.43;10.33;;;;;;;27.75;56.44;98474.41;1677655;84;21047;-60
2021/07/27 04:52:15;;;;;;;11.73;10.70;;;;;;;27.76;56.42;98473.11;1677036;84;21110;-59
2021/07/27 04:54:50;;;;;;;11.33;10.30;;;;;;;27.75;56.42;98471.61;1677046;84;21502;-59
2021/07/27 04:57:10;;;;;;;12.60;11.38;;;;;;;27.76;56.40;98475.91;1675368;84;21107;-60
2021/07/27 04:59:36;;;;;;;11.63;10.57;;;;;;;27.74;56.41;98475.02;1679695;84;21003;-59
2021/07/27 05:02:03;;;;;;;12.63;11.48;;;;;;;27.75;56.38;98474.41;1676724;83;21120;-60
2021/07/27 05:04:30;;;;;;;12.18;11.08;;;;;;;27.76;56.39;98481.48;1677472;84;21586;-61
2021/07/27 05:06:55;;;;;;;13.10;11.68;;;;;;;27.76;56.46;98480.84;1637778;86;21030;-60
2021/07/27 05:09:21;;;;;;;12.53;11.43;;;;;;;27.77;56.49;98485.77;1675823;84;21539;-58
2021/07/27 05:11:47;;;;;;;12.13;11.03;;;;;;;27.77;56.49;98491.36;1677050;84;21045;-60
2021/07/27 05:14:13;;;;;;;12.57;11.47;;;;;;;27.76;56.43;98494.79;1680547;83;21335;-60
2021/07/27 05:16:44;;;;;;;12.65;11.40;;;;;;;27.76;56.43;98494.79;1650993;84;21656;-62
2021/07/27 05:19:13;;;;;;;11.57;10.58;;;;;;;27.77;56.51;98482.98;1679902;84;21018;-62
2021/07/27 05:21:40;;;;;;;11.53;10.53;;;;;;;27.77;56.42;98480.20;1680213;84;21505;-62
2021/07/27 05:24:06;;;;;;;12.03;10.93;;;;;;;27.78;56.33;98481.08;1676611;84;22197;-61
2021/07/27 05:26:31;;;;;;;14.03;12.60;;;;;;;27.78;56.33;98482.48;1678017;83;21129;-60
2021/07/27 05:28:57;;;;;;;13.50;12.30;;;;;;;27.79;56.66;98480.44;1680663;84;21089;-60
2021/07/27 05:31:26;;;;;;;14.47;13.17;;;;;;;27.73;56.95;98480.48;1680991;83;21144;-60
2021/07/27 05:33:53;;;;;;;14.55;13.03;;;;;;;27.70;57.12;98475.20;1682477;84;21011;-60
2021/07/27 05:36:23;;;;;;;13.70;12.23;;;;;;;27.63;57.24;98475.87;1683459;83;21060;-60
2021/07/27 05:38:50;;;;;;;15.08;12.88;;;;;;;27.59;57.45;98484.42;1676004;83;21084;-60
2021/07/27 05:41:16;;;;;;;15.03;13.45;;;;;;;27.55;57.57;98483.28;1658570;84;21060;-60
2021/07/27 05:43:44;;;;;;;14.80;12.83;;;;;;;27.48;57.14;98476.89;1676797;84;21508;-60
2021/07/27 05:46:09;;;;;;;13.30;11.78;;;;;;;27.48;57.14;98476.89;1678703;84;21775;-61
2021/07/27 05:48:35;;;;;;;14.33;12.93;;;;;;;27.53;57.80;98470.52;1669400;84;21451;-59
2021/07/27 05:51:03;;;;;;;14.90;13.03;;;;;;;27.55;57.76;98470.73;1678791;84;21089;-59
2021/07/27 05:53:29;;;;;;;14.18;12.70;;;;;;;27.59;57.65;98468.44;1669898;84;21046;-60
2021/07/27 05:55:56;;;;;;;13.67;12.10;;;;;;;27.60;57.65;98471.98;1677980;84;21034;-60
2021/07/27 05:58:24;;;;;;;14.43;12.93;;;;;;;27.59;57.65;98473.27;1639184;84;21070;-60
2021/07/27 06:00:50;;;;;;;13.83;12.23;;;;;;;27.59;57.63;98473.27;1666986;83;21024;-61
2021/07/27 06:03:16;;;;;;;14.80;12.80;;;;;;;27.60;57.58;98471.33;1676428;84;21036;-59
2021/07/27 06:05:41;;;;;;;20.50;13.77;;;;;;;27.59;57.61;98474.02;1664620;84;21055;-60
2021/07/27 06:08:07;;;;;;;15.83;12.73;;;;;;;27.59;57.66;98472.62;1662839;84;21110;-61
2021/07/27 06:10:33;;;;;;;15.87;12.77;;;;;;;27.61;57.52;98470.07;1664261;85;21068;-60
2021/07/27 06:13:01;;;;;;;17.05;13.10;;;;;;;27.64;57.49;98461.30;1664123;84;21360;-60
2021/07/27 06:15:27;;;;;;;14.23;12.77;;;;;;;27.66;57.41;98468.49;1685152;84;21070;-61
2021/07/27 06:17:52;;;;;;;14.70;12.07;;;;;;;27.67;57.25;98469.37;1668185;84;21087;-60
2021/07/27 06:20:18;;;;;;;13.07;11.80;;;;;;;27.70;57.28;98471.77;1663907;83;21110;-60
2021/07/27 06:22:44;;;;;;;13.13;11.97;;;;;;;27.67;57.43;98466.59;1673602;84;21090;-59
2021/07/27 06:25:12;;;;;;;15.83;13.17;;;;;;;27.64;57.55;98466.88;1664595;84;21018;-60
2021/07/27 06:27:38;;;;;;;14.43;12.88;;;;;;;27.61;57.65;98463.72;1688449;84;21130;-60
2021/07/27 06:30:07;;;;;;;14.05;12.45;;;;;;;27.62;57.66;98469.42;1691582;84;21121;-60
2021/07/27 06:32:33;;;;;;;14.35;12.55;;;;;;;27.62;57.71;98467.39;1679245;84;21070;-59
2021/07/27 06:34:59;;;;;;;13.13;11.93;;;;;;;27.60;57.82;98462.96;1664855;84;21031;-60
2021/07/27 06:37:25;;;;;;;14.17;11.77;;;;;;;27.59;57.84;98464.25;1660521;86;21044;-60
2021/07/27 06:39:51;;;;;;;12.83;11.53;;;;;;;27.61;57.81;98463.72;1649532;86;21035;-60
2021/07/27 06:42:17;;;;;;;13.55;12.25;;;;;;;27.65;57.65;98460.77;1649224;86;22324;-60
2021/07/27 06:44:42;;;;;;;13.67;12.33;;;;;;;27.67;57.50;98461.66;1667216;86;21181;-61
2021/07/27 06:47:08;;;;;;;12.50;11.30;;;;;;;27.70;57.59;98466.84;1659115;86;21168;-60
2021/07/27 06:49:34;;;;;;;14.18;12.63;;;;;;;27.66;57.76;98467.09;1665456;86;21002;-60
2021/07/27 06:52:00;;;;;;;14.63;11.95;;;;;;;27.64;57.94;98464.84;1643686;86;21615;-60
2021/07/27 06:54:26;;;;;;;14.50;11.60;;;;;;;27.62;58.08;98461.06;1650110;86;21077;-60
2021/07/27 06:56:55;;;;;;;13.43;12.13;;;;;;;27.62;58.22;98457.62;1653442;86;21158;-60
2021/07/27 06:59:24;;;;;;;13.93;12.03;;;;;;;27.62;58.25;98453.44;1662117;86;21036;-60
2021/07/27 07:01:51;;;;;;;13.95;12.00;;;;;;;27.61;58.28;98461.70;1662464;86;21065;-60
2021/07/27 07:04:16;;;;;;;12.88;11.10;;;;;;;27.62;58.28;98456.23;1657378;86;21080;-60
2021/07/27 07:06:42;;;;;;;13.00;10.53;;;;;;;27.62;58.26;98452.69;1650387;86;21712;-60
2021/07/27 07:09:08;;;;;;;12.60;10.40;;;;;;;27.62;58.27;98461.06;1646450;86;21104;-60
2021/07/27 07:11:36;;;;;;;12.00;10.80;;;;;;;27.62;58.20;98455.48;1642307;86;21077;-60
2021/07/27 07:14:01;;;;;;;12.10;10.28;;;;;;;27.61;58.19;98456.13;1664364;86;21478;-59
2021/07/27 07:16:27;;;;;;;11.73;10.30;;;;;;;27.60;58.10;98465.75;1665549;86;21252;-60
2021/07/27 07:18:54;;;;;;;11.63;10.07;;;;;;;27.60;58.01;98458.78;1646244;86;21102;-59
2021/07/27 07:21:19;;;;;;;11.80;10.18;;;;;;;27.60;58.01;98458.78;1643707;86;21018;-60
2021/07/27 07:23:45;;;;;;;11.10;10.03;;;;;;;27.61;57.94;98452.55;1653785;86;22477;-59
2021/07/27 07:26:11;;;;;;;11.33;10.03;;;;;;;27.61;57.88;98453.34;1668109;86;20990;-61
2021/07/27 07:28:40;;;;;;;11.67;10.50;;;;;;;27.63;57.79;98446.58;1655383;86;21077;-59
2021/07/27 07:31:10;;;;;;;11.15;9.90;;;;;;;27.64;57.71;98449.50;1663793;86;21066;-60
2021/07/27 07:33:36;;;;;;;11.33;9.90;;;;;;;27.67;57.55;98448.45;1665082;86;21029;-60
2021/07/27 07:36:19;;;;;;;15.18;10.08;;;;;;;27.68;57.47;98456.19;1670382;84;21148;-60
2021/07/27 07:38:45;;;;;;;9.98;8.90;;;;;;;27.68;57.29;98447.81;1674301;84;21018;-60
2021/07/27 07:41:11;;;;;;;11.77;9.60;;;;;;;27.68;57.19;98449.20;1691688;84;21025;-60
2021/07/27 07:43:37;;;;;;;13.70;9.35;;;;;;;27.70;57.07;98457.07;1674589;84;22337;-61
2021/07/27 07:46:03;;;;;;;10.15;9.05;;;;;;;27.68;56.98;98449.20;1671819;84;21030;-60
2021/07/27 07:48:29;;;;;;;10.50;9.28;;;;;;;27.67;56.92;98449.85;1673318;84;21142;-60
2021/07/27 07:50:55;;;;;;;11.83;9.10;;;;;;;27.67;56.94;98449.10;1673826;84;21062;-60
2021/07/27 07:53:21;;;;;;;11.83;9.38;;;;;;;27.70;56.93;98464.05;1674551;85;21618;-60
2021/07/27 07:55:47;;;;;;;13.73;9.70;;;;;;;27.70;56.93;98461.25;1668530;84;21018;-61
2021/07/27 07:58:12;;;;;;;11.90;9.33;;;;;;;27.70;56.90;98461.25;1679525;84;21065;-60
2021/07/27 08:00:39;;;;;;;14.07;9.63;;;;;;;27.68;56.85;98458.97;1680426;84;21088;-61
2021/07/27 08:03:05;;;;;;;11.83;8.70;;;;;;;27.70;56.84;98461.25;1682914;83;21018;-60
2021/07/27 08:05:31;;;;;;;10.70;8.47;;;;;;;27.67;56.80;98459.62;1674767;83;21026;-61
2021/07/27 08:07:56;;;;;;;12.63;8.93;;;;;;;27.69;56.77;98463.27;1673817;84;21069;-60
2021/07/27 08:10:22;;;;;;;12.53;9.20;;;;;;;27.69;56.72;98466.05;1675203;84;21460;-61
2021/07/27 08:12:48;;;;;;;16.03;10.00;;;;;;;27.70;56.66;98469.63;1677364;84;21110;-61
2021/07/27 08:15:18;;;;;;;10.82;8.48;;;;;;;27.71;56.57;98473.27;1670371;84;21119;-60
2021/07/27 08:17:44;;;;;;;13.65;9.13;;;;;;;27.72;56.46;98481.00;1667823;83;21120;-60
2021/07/27 08:20:11;;;;;;;13.73;8.90;;;;;;;27.71;56.41;98484.43;1679176;83;21094;-60
2021/07/27 08:22:38;;;;;;;12.40;8.30;;;;;;;27.72;56.35;98483.79;1676174;84;22548;-61
2021/07/27 08:25:05;;;;;;;12.68;8.50;;;;;;;27.71;56.31;98480.25;1666461;84;21540;-61
2021/07/27 08:27:32;;;;;;;13.30;8.73;;;;;;;27.71;56.30;98488.62;1679639;83;21616;-60
2021/07/27 08:29:58;;;;;;;22.23;9.93;;;;;;;27.72;56.29;98486.58;1688442;84;21269;-60
2021/07/27 08:32:24;;;;;;;15.70;9.47;;;;;;;27.72;56.27;98487.97;1692276;84;21034;-60
2021/07/27 08:34:50;;;;;;;13.27;9.27;;;;;;;27.73;56.29;98493.05;1673108;84;21051;-60
2021/07/27 08:37:16;;;;;;;14.60;9.00;;;;;;;27.72;56.30;98497.13;1691220;84;21728;-60
2021/07/27 08:39:42;;;;;;;14.75;9.80;;;;;;;27.74;56.27;98493.80;1692185;84;21519;-60
2021/07/27 08:42:08;;;;;;;14.23;9.40;;;;;;;27.73;56.28;98493.05;1669153;84;21151;-60
2021/07/27 08:44:35;;;;;;;13.25;9.23;;;;;;;27.74;56.28;98496.58;1668754;84;21108;-60
2021/07/27 08:47:03;;;;;;;15.95;9.65;;;;;;;27.75;56.24;98496.08;1682584;84;21110;-60
2021/07/27 08:49:29;;;;;;;15.45;8.93;;;;;;;27.78;56.20;98509.63;1678694;84;21073;-61
2021/07/27 08:51:56;;;;;;;12.33;9.10;;;;;;;27.80;56.17;98514.06;1663614;84;21070;-61
2021/07/27 08:54:22;;;;;;;10.65;8.75;;;;;;;27.80;56.14;98519.02;1681858;84;21081;-61
2021/07/27 08:56:48;;;;;;;14.73;9.50;;;;;;;27.83;56.06;98520.02;1682379;84;21030;-61
2021/07/27 08:59:15;;;;;;;11.55;8.65;;;;;;;27.84;56.04;98519.48;1669829;84;21030;-61
2021/07/27 09:01:41;;;;;;;13.45;9.98;;;;;;;27.86;56.00;98517.58;1690162;84;21160;-60
2021/07/27 09:04:07;;;;;;;13.20;9.38;;;;;;;27.87;55.97;98520.48;1666502;84;21113;-60
2021/07/27 09:06:32;;;;;;;13.60;9.00;;;;;;;27.89;55.97;98515.14;1665948;84;21086;-60
2021/07/27 09:09:08;;;;;;;14.63;9.50;;;;;;;27.89;56.04;98513.10;1663728;84;21082;-61
2021/07/27 09:11:48;;;;;;;14.80;9.33;;;;;;;27.88;56.01;98503.23;1665656;84;21124;-60
2021/07/27 09:14:16;;;;;;;11.50;8.85;;;;;;;27.88;55.96;98503.23;1691507;84;21022;-59
2021/07/27 09:16:47;;;;;;;14.03;9.93;;;;;;;27.88;55.91;98504.63;1686862;84;21090;-59
2021/07/27 09:19:13;;;;;;;12.98;9.05;;;;;;;27.90;55.93;98515.25;1665536;83;21035;-60
2021/07/27 09:21:42;;;;;;;12.93;9.40;;;;;;;27.90;55.94;98509.67;1682434;84;21014;-60
2021/07/27 09:24:06;;;;;;;12.47;9.88;;;;;;;27.91;55.92;98505.61;1692519;84;21077;-59
2021/07/27 09:26:32;;;;;;;14.60;9.30;;;;;;;27.92;55.95;98507.77;1692989;84;21094;-60
2021/07/27 09:29:04;;;;;;;12.23;8.87;;;;;;;27.94;55.96;98513.56;1670039;84;21678;-59
2021/07/27 09:31:31;;;;;;;12.60;8.98;;;;;;;27.93;55.95;98518.39;1673116;84;21515;-59
2021/07/27 09:33:57;;;;;;;12.98;9.30;;;;;;;27.94;55.94;98521.31;1684066;84;21105;-59
2021/07/27 09:36:25;;;;;;;11.17;9.63;;;;;;;27.95;55.91;98518.63;1692972;83;21538;-59
2021/07/27 09:39:04;;;;;;;11.60;9.60;;;;;;;27.95;55.89;98526.25;1692900;84;21590;-59
2021/07/27 09:41:32;;;;;;;14.07;10.10;;;;;;;27.97;55.84;98520.91;1666258;84;21730;-59
2021/07/27 09:43:58;;;;;;;11.13;9.77;;;;;;;27.96;55.81;98524.32;1690075;84;21149;-59
2021/07/27 09:46:25;;;;;;;16.67;9.80;;;;;;;27.97;55.78;98527.89;1684491;84;21488;-59
2021/07/27 09:48:51;;;;;;;;;;;;;;;27.97;55.74;98520.27;1688049;84;21210;-59
2021/07/27 09:51:17;;;;;;;16.50;10.63;;;;;;;27.97;55.76;98508.36;1672161;84;20491;-59
2021/07/27 09:53:46;;;;;;;10.80;9.00;;;;;;;27.98;55.73;98529.39;1664944;84;21126;-59
2021/07/27 09:56:12;;;;;;;12.30;9.50;;;;;;;27.97;55.69;98523.06;1665152;84;21639;-59
2021/07/27 09:58:39;;;;;;;10.70;9.10;;;;;;;27.98;55.66;98526.60;1681850;84;21116;-59
2021/07/27 10:01:23;;;;;;;10.88;9.13;;;;;;;27.98;55.61;98521.77;1690973;84;21928;-59
2021/07/27 10:03:57;;;;;;;10.72;8.80;;;;;;;28.00;55.54;98527.59;1682573;84;21085;-59
2021/07/27 10:06:26;;;;;;;13.28;9.10;;;;;;;28.01;55.51;98527.70;1689621;84;21029;-60
2021/07/27 10:08:59;;;;;;;11.83;8.98;;;;;;;27.99;55.48;98530.90;1678469;84;22194;-60
2021/07/27 10:11:38;;;;;;;10.48;9.10;;;;;;;28.00;55.48;98536.61;1660948;84;21614;-60
2021/07/27 10:14:13;;;;;;;16.90;10.18;;;;;;;27.99;55.75;98535.86;1683119;84;21704;-60
2021/07/27 10:16:39;;;;;;;13.03;9.85;;;;;;;27.97;56.23;98532.08;1679206;84;21065;-61
2021/07/27 10:19:17;;;;;;;13.93;10.18;;;;;;;27.96;56.66;98538.27;1687474;84;21077;-60
2021/07/27 10:21:43;;;;;;;11.10;9.15;;;;;;;27.96;56.81;98536.13;1668307;84;21314;-61
2021/07/27 10:24:26;;;;;;;11.40;9.93;;;;;;;27.95;56.80;98533.98;1669164;84;21138;-60
2021/07/27 10:26:49;;;;;;;12.30;9.75;;;;;;;27.96;56.71;98533.34;1684498;84;21071;-60
2021/07/27 10:29:18;;;;;;;12.23;9.50;;;;;;;27.96;56.78;98538.92;1685064;84;21522;-61
2021/07/27 10:31:45;;;;;;;10.55;9.55;;;;;;;27.95;56.83;98543.00;1690796;84;21574;-60
2021/07/27 10:34:12;;;;;;;11.30;9.68;;;;;;;27.94;56.93;98540.85;1692596;84;21042;-60
2021/07/27 10:36:42;;;;;;;13.20;9.88;;;;;;;27.94;56.90;98542.86;1694020;83;21168;-60
2021/07/27 10:39:17;;;;;;;11.33;9.48;;;;;;;27.94;56.92;98549.22;1683041;84;21064;-60
2021/07/27 10:41:46;;;;;;;10.72;9.23;;;;;;;27.94;56.97;98542.86;1683419;84;21134;-60
2021/07/27 10:44:20;;;;;;;12.55;9.43;;;;;;;27.93;56.91;98542.11;1688295;84;21077;-60
2021/07/27 10:46:45;;;;;;;9.90;8.90;;;;;;;27.95;56.92;98552.13;1686590;84;21066;-61
2021/07/27 10:49:16;;;;;;;9.93;8.83;;;;;;;27.95;56.88;98559.09;1695265;84;21058;-60
2021/07/27 10:51:43;;;;;;;9.70;8.75;;;;;;;27.96;56.88;98554.27;1695001;84;21073;-59
2021/07/27 10:54:09;;;;;;;9.03;8.13;;;;;;;27.96;56.89;98538.92;1693259;84;21600;-60
2021/07/27 10:56:36;;;;;;;9.20;8.15;;;;;;;27.96;56.97;98535.48;1675891;84;21066;-60
2021/07/27 10:59:02;;;;;;;8.98;8.03;;;;;;;27.96;57.21;98534.09;1683426;84;21050;-60
2021/07/27 11:01:29;;;;;;;9.80;8.80;;;;;;;27.98;57.24;98541.31;1676658;84;21059;-60
2021/07/27 11:03:56;;;;;;;10.53;8.68;;;;;;;28.00;57.11;98539.41;1678229;83;21594;-60
2021/07/27 11:06:22;;;;;;;10.40;9.28;;;;;;;28.02;57.04;98545.98;1686840;84;21385;-60
2021/07/27 11:08:48;;;;;;;9.50;8.50;;;;;;;28.02;57.01;98543.19;1694897;84;21586;-60
2021/07/27 11:11:17;;;;;;;9.70;8.80;;;;;;;28.02;56.99;98548.77;1665103;84;20997;-59
2021/07/27 11:13:47;;;;;;;9.55;8.65;;;;;;;28.02;57.01;98550.17;1694445;84;21069;-60
2021/07/27 11:16:15;;;;;;;10.53;9.43;;;;;;;28.01;56.91;98543.70;1682747;84;21101;-60
2021/07/27 11:18:40;;;;;;;10.13;9.13;;;;;;;28.04;56.80;98556.61;1674904;84;21129;-61
2021/07/27 11:21:08;;;;;;;10.00;8.67;;;;;;;28.06;56.71;98563.83;1653000;84;21102;-60
2021/07/27 11:23:35;;;;;;;10.65;8.55;;;;;;;28.06;56.74;98563.83;1667492;84;21099;-60
2021/07/27 11:26:02;;;;;;;9.75;8.85;;;;;;;28.05;56.77;98560.30;1687748;84;21041;-59
2021/07/27 11:28:35;;;;;;;10.20;9.30;;;;;;;28.05;56.68;98553.95;1672632;84;21607;-60
2021/07/27 11:31:02;;;;;;;10.08;9.18;;;;;;;28.07;56.57;98554.95;1684092;84;21070;-60
2021/07/27 11:33:28;;;;;;;9.20;8.13;;;;;;;28.07;56.52;98556.34;1695542;84;21117;-59
2021/07/27 11:35:54;;;;;;;10.80;8.60;;;;;;;28.09;56.68;98550.98;1692030;83;21130;-60
2021/07/27 11:38:32;;;;;;;10.30;9.30;;;;;;;28.09;56.63;98554.41;1670844;84;21069;-61